sensor_id;sensor_type;location;lat;lon;timestamp;pressure;altitude;pressure_sealevel;temperature;humidity
43701;BME280;58809;47.984;7.964;2023-02-10T00:02:57;99082.69;;;-3.85;94.61
43701;BME280;58809;47.984;7.964;2023-02-10T00:05:59;99078.28;;;-3.81;95.24
43701;BME280;58809;47.984;7.964;2023-02-10T00:09:01;99091.09;;;-3.77;95.37
43701;BME280;58809;47.984;7.964;2023-02-10T00:12:03;99095.47;;;-3.79;94.85
43701;BME280;58809;47.984;7.964;2023-02-10T00:15:05;99096.34;;;-3.80;94.80
43701;BME280;58809;47.984;7.964;2023-02-10T00:18:07;99087.72;;;-3.79;95.13
43701;BME280;58809;47.984;7.964;2023-02-10T00:21:12;99095.59;;;-3.83;94.76
43701;BME280;58809;47.984;7.964;2023-02-10T00:24:14;99082.63;;;-3.82;95.22
43701;BME280;58809;47.984;7.964;2023-02-10T00:27:16;99084.41;;;-3.84;95.33
43701;BME280;58809;47.984;7.964;2023-02-10T00:30:24;99082.69;;;-3.85;94.95
43701;BME280;58809;47.984;7.964;2023-02-10T00:33:25;99088.06;;;-3.91;95.48
43701;BME280;58809;47.984;7.964;2023-02-10T00:36:27;99075.13;;;-3.91;95.24
43701;BME280;58809;47.984;7.964;2023-02-10T00:39:29;99063.72;;;-3.84;95.57
43701;BME280;58809;47.984;7.964;2023-02-10T00:42:31;99070.50;;;-3.80;95.33
43701;BME280;58809;47.984;7.964;2023-02-10T00:45:32;99069.66;;;-3.80;95.26
43701;BME280;58809;47.984;7.964;2023-02-10T00:48:34;99072.34;;;-3.85;95.30
43701;BME280;58809;47.984;7.964;2023-02-10T00:51:35;99064.88;;;-3.94;94.75
43701;BME280;58809;47.984;7.964;2023-02-10T00:54:37;99067.69;;;-4.02;95.43
43701;BME280;58809;47.984;7.964;2023-02-10T00:57:38;99074.50;;;-3.99;96.42
43701;BME280;58809;47.984;7.964;2023-02-10T01:00:40;99077.81;;;-3.94;95.87
43701;BME280;58809;47.984;7.964;2023-02-10T01:03:42;99059.88;;;-4.00;95.29
43701;BME280;58809;47.984;7.964;2023-02-10T01:06:43;99075.63;;;-4.08;95.19
43701;BME280;58809;47.984;7.964;2023-02-10T01:09:45;99076.47;;;-4.08;95.84
43701;BME280;58809;47.984;7.964;2023-02-10T01:12:46;99079.06;;;-4.08;96.48
43701;BME280;58809;47.984;7.964;2023-02-10T01:15:48;99074.75;;;-4.09;96.87
43701;BME280;58809;47.984;7.964;2023-02-10T01:18:50;99086.59;;;-4.00;96.50
43701;BME280;58809;47.984;7.964;2023-02-10T01:21:51;99085.47;;;-3.91;96.80
43701;BME280;58809;47.984;7.964;2023-02-10T01:24:53;99080.16;;;-3.87;96.87
43701;BME280;58809;47.984;7.964;2023-02-10T01:27:55;99093.84;;;-3.83;96.03
43701;BME280;58809;47.984;7.964;2023-02-10T01:30:57;99086.31;;;-3.91;95.91
43701;BME280;58809;47.984;7.964;2023-02-10T01:33:58;99074.50;;;-3.99;96.09
43701;BME280;58809;47.984;7.964;2023-02-10T01:37:00;99078.75;;;-3.97;96.16
43701;BME280;58809;47.984;7.964;2023-02-10T01:40:02;99083.16;;;-4.00;95.97
43701;BME280;58809;47.984;7.964;2023-02-10T01:43:13;99082.84;;;-4.19;96.06
43701;BME280;58809;47.984;7.964;2023-02-10T01:46:15;99093.91;;;-4.16;97.01
43701;BME280;58809;47.984;7.964;2023-02-10T01:49:19;99072.50;;;-4.19;97.76
43701;BME280;58809;47.984;7.964;2023-02-10T01:52:24;99081.00;;;-4.16;97.39
43701;BME280;58809;47.984;7.964;2023-02-10T01:55:32;99083.84;;;-4.25;97.43
43701;BME280;58809;47.984;7.964;2023-02-10T01:58:37;99093.41;;;-4.29;97.92
43701;BME280;58809;47.984;7.964;2023-02-10T02:01:39;99091.81;;;-4.33;97.67
43701;BME280;58809;47.984;7.964;2023-02-10T02:04:47;99087.56;;;-4.35;98.02
43701;BME280;58809;47.984;7.964;2023-02-10T02:07:49;99088.41;;;-4.35;98.25
43701;BME280;58809;47.984;7.964;2023-02-10T02:11:01;99089.34;;;-4.37;99.10
43701;BME280;58809;47.984;7.964;2023-02-10T02:14:32;99074.00;;;-4.43;98.90
43701;BME280;58809;47.984;7.964;2023-02-10T02:21:13;99087.72;;;-4.41;98.10
43701;BME280;58809;47.984;7.964;2023-02-10T02:27:55;99082.47;;;-4.38;98.54
43701;BME280;58809;47.984;7.964;2023-02-10T02:34:49;99083.38;;;-4.39;97.55
43701;BME280;58809;47.984;7.964;2023-02-10T02:37:54;99086.88;;;-4.42;97.41
43701;BME280;58809;47.984;7.964;2023-02-10T02:40:56;99092.88;;;-4.41;98.13
43701;BME280;58809;47.984;7.964;2023-02-10T02:43:58;99082.91;;;-4.54;97.15
43701;BME280;58809;47.984;7.964;2023-02-10T02:50:30;99082.28;;;-4.64;98.21
43701;BME280;58809;47.984;7.964;2023-02-10T02:57:13;99080.38;;;-4.57;97.99
43701;BME280;58809;47.984;7.964;2023-02-10T03:00:20;99080.28;;;-4.52;97.99
43701;BME280;58809;47.984;7.964;2023-02-10T03:03:26;99094.03;;;-4.52;97.42
43701;BME280;58809;47.984;7.964;2023-02-10T03:06:28;99097.53;;;-4.54;97.53
43701;BME280;58809;47.984;7.964;2023-02-10T03:09:30;99097.88;;;-4.67;96.66
43701;BME280;58809;47.984;7.964;2023-02-10T03:12:32;99101.41;;;-4.71;97.17
43701;BME280;58809;47.984;7.964;2023-02-10T03:15:33;99102.16;;;-4.67;98.05
43701;BME280;58809;47.984;7.964;2023-02-10T03:18:35;99096.38;;;-4.75;98.17
43701;BME280;58809;47.984;7.964;2023-02-10T03:21:36;99093.13;;;-4.84;98.41
43701;BME280;58809;47.984;7.964;2023-02-10T03:24:38;99095.69;;;-4.84;98.77
43701;BME280;58809;47.984;7.964;2023-02-10T03:27:39;99085.38;;;-4.84;98.75
43701;BME280;58809;47.984;7.964;2023-02-10T03:30:41;99094.13;;;-4.89;99.06
43701;BME280;58809;47.984;7.964;2023-02-10T03:33:51;99099.19;;;-4.85;99.98
43701;BME280;58809;47.984;7.964;2023-02-10T03:36:53;99096.34;;;-4.74;100.00
43701;BME280;58809;47.984;7.964;2023-02-10T03:39:54;99097.88;;;-4.67;100.00
43701;BME280;58809;47.984;7.964;2023-02-10T03:42:56;99108.22;;;-4.67;99.51
43701;BME280;58809;47.984;7.964;2023-02-10T03:46:01;99099.56;;;-4.66;99.96
43701;BME280;58809;47.984;7.964;2023-02-10T03:49:04;99110.00;;;-4.69;99.42
43701;BME280;58809;47.984;7.964;2023-02-10T03:52:05;99111.91;;;-4.77;98.80
43701;BME280;58809;47.984;7.964;2023-02-10T03:55:07;99115.44;;;-4.81;99.22
43701;BME280;58809;47.984;7.964;2023-02-10T03:58:08;99130.97;;;-4.82;98.71
43701;BME280;58809;47.984;7.964;2023-02-10T04:01:15;99138.03;;;-4.89;99.25
43701;BME280;58809;47.984;7.964;2023-02-10T04:04:17;99137.88;;;-4.83;99.63
43701;BME280;58809;47.984;7.964;2023-02-10T04:07:19;99141.34;;;-4.84;99.69
43701;BME280;58809;47.984;7.964;2023-02-10T04:10:21;99142.13;;;-4.80;99.87
43701;BME280;58809;47.984;7.964;2023-02-10T04:13:22;99153.22;;;-4.77;99.66
43701;BME280;58809;47.984;7.964;2023-02-10T04:16:24;99141.31;;;-4.82;99.86
43701;BME280;58809;47.984;7.964;2023-02-10T04:19:28;99142.13;;;-4.80;99.73
43701;BME280;58809;47.984;7.964;2023-02-10T04:22:30;99141.25;;;-4.79;99.99
43701;BME280;58809;47.984;7.964;2023-02-10T04:25:32;99137.88;;;-4.83;100.00
43701;BME280;58809;47.984;7.964;2023-02-10T04:28:34;99140.28;;;-4.75;100.00
43701;BME280;58809;47.984;7.964;2023-02-10T04:31:35;99146.16;;;-4.69;100.00
43701;BME280;58809;47.984;7.964;2023-02-10T04:34:37;99147.72;;;-4.63;100.00
43701;BME280;58809;47.984;7.964;2023-02-10T04:37:39;99140.22;;;-4.72;99.89
43701;BME280;58809;47.984;7.964;2023-02-10T04:40:41;99148.09;;;-4.78;99.86
43701;BME280;58809;47.984;7.964;2023-02-10T04:43:43;99138.97;;;-4.93;100.00
43701;BME280;58809;47.984;7.964;2023-02-10T04:46:44;99145.75;;;-4.89;100.00
43701;BME280;58809;47.984;7.964;2023-02-10T04:49:46;99151.84;;;-4.90;100.00
43701;BME280;58809;47.984;7.964;2023-02-10T04:52:48;99145.81;;;-4.91;100.00
43701;BME280;58809;47.984;7.964;2023-02-10T04:55:49;99150.03;;;-4.87;100.00
43701;BME280;58809;47.984;7.964;2023-02-10T04:58:51;99158.66;;;-4.88;100.00
43701;BME280;58809;47.984;7.964;2023-02-10T05:01:52;99161.97;;;-4.82;100.00
43701;BME280;58809;47.984;7.964;2023-02-10T05:04:54;99155.16;;;-4.85;100.00
43701;BME280;58809;47.984;7.964;2023-02-10T05:07:55;99152.59;;;-4.87;100.00
43701;BME280;58809;47.984;7.964;2023-02-10T05:10:57;99141.38;;;-4.86;100.00
43701;BME280;58809;47.984;7.964;2023-02-10T05:13:58;99139.59;;;-4.84;100.00
43701;BME280;58809;47.984;7.964;2023-02-10T05:17:00;99148.44;;;-4.92;100.00
43701;BME280;58809;47.984;7.964;2023-02-10T05:20:02;99154.50;;;-4.95;100.00
43701;BME280;58809;47.984;7.964;2023-02-10T05:23:04;99152.72;;;-4.93;100.00
43701;BME280;58809;47.984;7.964;2023-02-10T05:26:06;99152.84;;;-4.96;100.00
43701;BME280;58809;47.984;7.964;2023-02-10T05:29:07;99157.03;;;-4.92;100.00
43701;BME280;58809;47.984;7.964;2023-02-10T05:32:09;99152.78;;;-4.94;100.00
43701;BME280;58809;47.984;7.964;2023-02-10T05:35:11;99157.06;;;-4.93;100.00
43701;BME280;58809;47.984;7.964;2023-02-10T05:38:12;99154.44;;;-4.92;100.00
43701;BME280;58809;47.984;7.964;2023-02-10T05:41:14;99162.22;;;-4.93;100.00
43701;BME280;58809;47.984;7.964;2023-02-10T05:44:15;99159.75;;;-4.98;100.00
43701;BME280;58809;47.984;7.964;2023-02-10T05:47:17;99155.47;;;-4.99;100.00
43701;BME280;58809;47.984;7.964;2023-02-10T05:50:19;99148.66;;;-5.01;100.00
43701;BME280;58809;47.984;7.964;2023-02-10T05:53:20;99159.06;;;-5.06;100.00
43701;BME280;58809;47.984;7.964;2023-02-10T05:56:22;99164.28;;;-5.08;100.00
43701;BME280;58809;47.984;7.964;2023-02-10T05:59:23;99165.06;;;-5.04;100.00
43701;BME280;58809;47.984;7.964;2023-02-10T06:02:25;99146.31;;;-5.12;100.00
43701;BME280;58809;47.984;7.964;2023-02-10T06:05:27;99161.06;;;-5.17;100.00
43701;BME280;58809;47.984;7.964;2023-02-10T06:08:28;99170.56;;;-5.18;100.00
43701;BME280;58809;47.984;7.964;2023-02-10T06:11:30;99171.47;;;-5.22;100.00
43701;BME280;58809;47.984;7.964;2023-02-10T06:14:31;99169.81;;;-5.25;100.00
43701;BME280;58809;47.984;7.964;2023-02-10T06:17:33;99177.50;;;-5.22;100.00
43701;BME280;58809;47.984;7.964;2023-02-10T06:20:34;99184.34;;;-5.20;100.00
43701;BME280;58809;47.984;7.964;2023-02-10T06:23:36;99180.06;;;-5.20;100.00
43701;BME280;58809;47.984;7.964;2023-02-10T06:26:37;99187.75;;;-5.18;100.00
43701;BME280;58809;47.984;7.964;2023-02-10T06:29:39;99180.84;;;-5.16;100.00
43701;BME280;58809;47.984;7.964;2023-02-10T06:32:40;99176.59;;;-5.20;100.00
43701;BME280;58809;47.984;7.964;2023-02-10T06:35:42;99180.88;;;-5.18;100.00
43701;BME280;58809;47.984;7.964;2023-02-10T06:38:44;99194.47;;;-5.11;100.00
43701;BME280;58809;47.984;7.964;2023-02-10T06:41:45;99191.69;;;-5.02;100.00
43701;BME280;58809;47.984;7.964;2023-02-10T06:44:47;99195.75;;;-4.92;100.00
43701;BME280;58809;47.984;7.964;2023-02-10T06:47:48;99199.16;;;-4.90;100.00
43701;BME280;58809;47.984;7.964;2023-02-10T06:50:50;99195.72;;;-4.90;100.00
43701;BME280;58809;47.984;7.964;2023-02-10T06:53:51;99197.50;;;-4.92;100.00
43701;BME280;58809;47.984;7.964;2023-02-10T06:56:53;99199.19;;;-4.91;100.00
43701;BME280;58809;47.984;7.964;2023-02-10T06:59:54;99206.06;;;-4.90;100.00
43701;BME280;58809;47.984;7.964;2023-02-10T07:02:56;99210.38;;;-4.91;100.00
43701;BME280;58809;47.984;7.964;2023-02-10T07:05:57;99220.75;;;-4.92;100.00
43701;BME280;58809;47.984;7.964;2023-02-10T07:08:59;99221.59;;;-4.92;100.00
43701;BME280;58809;47.984;7.964;2023-02-10T07:12:01;99224.91;;;-4.87;100.00
43701;BME280;58809;47.984;7.964;2023-02-10T07:15:04;99223.19;;;-4.88;99.55
43701;BME280;58809;47.984;7.964;2023-02-10T07:18:06;99225.72;;;-4.85;99.79
43701;BME280;58809;47.984;7.964;2023-02-10T07:21:08;99215.22;;;-4.77;100.00
43701;BME280;58809;47.984;7.964;2023-02-10T07:24:09;99224.41;;;-4.65;99.31
43701;BME280;58809;47.984;7.964;2023-02-10T07:27:11;99220.03;;;-4.61;99.17
43701;BME280;58809;47.984;7.964;2023-02-10T07:30:13;99229.31;;;-4.54;99.18
43701;BME280;58809;47.984;7.964;2023-02-10T07:33:14;99230.63;;;-4.38;98.54
43701;BME280;58809;47.984;7.964;2023-02-10T07:36:16;99221.81;;;-4.29;98.10
43701;BME280;58809;47.984;7.964;2023-02-10T07:39:17;99229.28;;;-4.18;97.97
43701;BME280;58809;47.984;7.964;2023-02-10T07:42:19;99233.25;;;-4.05;97.33
43701;BME280;58809;47.984;7.964;2023-02-10T07:45:40;99242.47;;;-3.95;96.52
43701;BME280;58809;47.984;7.964;2023-02-10T07:48:42;99236.13;;;-3.83;95.95
43701;BME280;58809;47.984;7.964;2023-02-10T07:51:43;99234.91;;;-3.70;95.63
43701;BME280;58809;47.984;7.964;2023-02-10T07:54:45;99238.00;;;-3.57;95.50
43701;BME280;58809;47.984;7.964;2023-02-10T07:57:47;99241.16;;;-3.45;95.75
43701;BME280;58809;47.984;7.964;2023-02-10T08:00:48;99246.06;;;-3.36;95.67
43701;BME280;58809;47.984;7.964;2023-02-10T08:03:50;99247.34;;;-3.21;95.39
43701;BME280;58809;47.984;7.964;2023-02-10T08:06:52;99250.47;;;-3.10;95.19
43701;BME280;58809;47.984;7.964;2023-02-10T08:09:54;99251.13;;;-3.02;94.94
43701;BME280;58809;47.984;7.964;2023-02-10T08:12:56;99253.44;;;-2.93;95.16
43701;BME280;58809;47.984;7.964;2023-02-10T08:15:57;99247.94;;;-2.82;95.07
43701;BME280;58809;47.984;7.964;2023-02-10T08:18:59;99247.59;;;-2.71;95.27
43701;BME280;58809;47.984;7.964;2023-02-10T08:22:00;99262.56;;;-2.53;95.21
43701;BME280;58809;47.984;7.964;2023-02-10T08:25:02;99257.72;;;-2.37;94.96
43701;BME280;58809;47.984;7.964;2023-02-10T08:28:04;99260.00;;;-2.27;93.71
43701;BME280;58809;47.984;7.964;2023-02-10T08:31:07;99251.13;;;-2.20;93.45
43701;BME280;58809;47.984;7.964;2023-02-10T08:34:15;99262.66;;;-2.02;93.38
43701;BME280;58809;47.984;7.964;2023-02-10T08:37:17;99260.59;;;-1.92;92.27
43701;BME280;58809;47.984;7.964;2023-02-10T08:40:19;99252.38;;;-1.80;91.88
43701;BME280;58809;47.984;7.964;2023-02-10T08:43:21;99254.56;;;-1.68;91.80
43701;BME280;58809;47.984;7.964;2023-02-10T08:46:22;99252.34;;;-1.53;91.19
43701;BME280;58809;47.984;7.964;2023-02-10T08:49:24;99246.81;;;-1.44;91.01
43701;BME280;58809;47.984;7.964;2023-02-10T08:52:26;99249.84;;;-1.33;90.86
43701;BME280;58809;47.984;7.964;2023-02-10T08:55:27;99259.66;;;-1.18;90.76
43701;BME280;58809;47.984;7.964;2023-02-10T08:58:29;99241.47;;;-1.18;89.53
43701;BME280;58809;47.984;7.964;2023-02-10T09:01:30;99248.72;;;-1.02;88.89
43701;BME280;58809;47.984;7.964;2023-02-10T09:04:32;99249.25;;;-0.94;88.52
43701;BME280;58809;47.984;7.964;2023-02-10T09:07:34;99242.09;;;-0.87;88.13
43701;BME280;58809;47.984;7.964;2023-02-10T09:10:35;99243.25;;;-0.72;87.58
43701;BME280;58809;47.984;7.964;2023-02-10T09:13:37;99244.34;;;-0.56;87.43
43701;BME280;58809;47.984;7.964;2023-02-10T09:16:39;99246.97;;;-0.35;86.29
43701;BME280;58809;47.984;7.964;2023-02-10T09:19:40;99242.91;;;-0.21;85.48
43701;BME280;58809;47.984;7.964;2023-02-10T09:22:42;99247.78;;;-0.13;85.17
43701;BME280;58809;47.984;7.964;2023-02-10T09:25:55;99241.34;;;-0.04;84.68
43701;BME280;58809;47.984;7.964;2023-02-10T09:28:57;99233.09;;;0.07;84.27
43701;BME280;58809;47.984;7.964;2023-02-10T09:31:59;99242.28;;;0.15;83.67
43701;BME280;58809;47.984;7.964;2023-02-10T09:35:00;99239.16;;;0.28;83.16
43701;BME280;58809;47.984;7.964;2023-02-10T09:38:02;99241.34;;;0.37;82.60
43701;BME280;58809;47.984;7.964;2023-02-10T09:44:34;99235.13;;;0.60;81.87
43701;BME280;58809;47.984;7.964;2023-02-10T09:47:48;99237.25;;;0.71;81.68
43701;BME280;58809;47.984;7.964;2023-02-10T09:51:11;99243.75;;;0.81;81.02
43701;BME280;58809;47.984;7.964;2023-02-10T09:54:17;99237.97;;;0.93;81.12
43701;BME280;58809;47.984;7.964;2023-02-10T09:57:23;99221.75;;;1.06;80.45
43701;BME280;58809;47.984;7.964;2023-02-10T10:00:32;99237.53;;;1.22;79.81
43701;BME280;58809;47.984;7.964;2023-02-10T10:04:08;99232.44;;;1.38;79.05
43701;BME280;58809;47.984;7.964;2023-02-10T10:07:20;99235.38;;;1.49;77.91
43701;BME280;58809;47.984;7.964;2023-02-10T10:10:32;99231.38;;;1.59;76.68
43701;BME280;58809;47.984;7.964;2023-02-10T10:13:36;99225.19;;;1.62;76.01
43701;BME280;58809;47.984;7.964;2023-02-10T10:26:47;99236.97;;;2.05;74.22
43701;BME280;58809;47.984;7.964;2023-02-10T10:29:58;99233.41;;;2.06;74.60
43701;BME280;58809;47.984;7.964;2023-02-10T10:33:14;99240.16;;;2.10;74.03
43701;BME280;58809;47.984;7.964;2023-02-10T10:36:32;99230.50;;;2.13;73.93
43701;BME280;58809;47.984;7.964;2023-02-10T10:39:38;99238.56;;;2.25;74.15
43701;BME280;58809;47.984;7.964;2023-02-10T10:42:44;99231.78;;;2.39;73.66
43701;BME280;58809;47.984;7.964;2023-02-10T10:45:53;99233.22;;;2.44;73.39
43701;BME280;58809;47.984;7.964;2023-02-10T10:48:57;99220.91;;;2.46;73.13
43701;BME280;58809;47.984;7.964;2023-02-10T10:51:59;99222.91;;;2.59;73.05
43701;BME280;58809;47.984;7.964;2023-02-10T10:55:09;99220.41;;;2.73;72.18
43701;BME280;58809;47.984;7.964;2023-02-10T10:58:24;99219.31;;;2.77;71.63
43701;BME280;58809;47.984;7.964;2023-02-10T11:01:41;99214.56;;;2.84;71.18
43701;BME280;58809;47.984;7.964;2023-02-10T11:04:43;99212.66;;;3.03;70.44
43701;BME280;58809;47.984;7.964;2023-02-10T11:07:50;99214.31;;;3.20;69.67
43701;BME280;58809;47.984;7.964;2023-02-10T11:10:55;99209.22;;;3.19;70.01
43701;BME280;58809;47.984;7.964;2023-02-10T11:13:58;99211.13;;;3.31;69.20
43701;BME280;58809;47.984;7.964;2023-02-10T11:17:00;99214.25;;;3.38;68.81
43701;BME280;58809;47.984;7.964;2023-02-10T11:20:51;99204.69;;;3.37;69.08
43701;BME280;58809;47.984;7.964;2023-02-10T11:23:27;99206.22;;;3.41;69.45
43701;BME280;58809;47.984;7.964;2023-02-10T11:26:29;99205.28;;;3.42;69.29
43701;BME280;58809;47.984;7.964;2023-02-10T11:29:34;99205.03;;;3.46;69.75
43701;BME280;58809;47.984;7.964;2023-02-10T11:32:36;99204.19;;;3.46;69.57
43701;BME280;58809;47.984;7.964;2023-02-10T11:35:38;99202.50;;;3.45;69.30
43701;BME280;58809;47.984;7.964;2023-02-10T11:38:40;99205.28;;;3.42;69.38
43701;BME280;58809;47.984;7.964;2023-02-10T11:41:42;99193.03;;;3.42;69.85
43701;BME280;58809;47.984;7.964;2023-02-10T11:44:56;99196.59;;;3.57;69.64
43701;BME280;58809;47.984;7.964;2023-02-10T11:48:19;99202.19;;;3.65;70.12
43701;BME280;58809;47.984;7.964;2023-02-10T11:51:21;99203.78;;;3.68;69.43
43701;BME280;58809;47.984;7.964;2023-02-10T11:54:24;99202.94;;;3.67;69.44
43701;BME280;58809;47.984;7.964;2023-02-10T12:01:16;99189.00;;;3.83;68.48
43701;BME280;58809;47.984;7.964;2023-02-10T12:08:23;99182.38;;;4.06;67.89
43701;BME280;58809;47.984;7.964;2023-02-10T12:12:00;99186.41;;;4.12;68.26
43701;BME280;58809;47.984;7.964;2023-02-10T12:18:33;99173.72;;;4.20;67.23
43701;BME280;58809;47.984;7.964;2023-02-10T12:25:16;99174.91;;;4.43;66.48
43701;BME280;58809;47.984;7.964;2023-02-10T12:31:45;99176.44;;;4.47;66.78
43701;BME280;58809;47.984;7.964;2023-02-10T12:45:22;99163.41;;;4.60;65.62
43701;BME280;58809;47.984;7.964;2023-02-10T12:52:14;99169.47;;;4.75;65.37
43701;BME280;58809;47.984;7.964;2023-02-10T12:55:27;99168.19;;;4.68;65.25
43701;BME280;58809;47.984;7.964;2023-02-10T12:58:32;99163.00;;;4.80;65.04
43701;BME280;58809;47.984;7.964;2023-02-10T13:01:43;99157.94;;;4.77;64.40
43701;BME280;58809;47.984;7.964;2023-02-10T13:04:50;99157.19;;;4.75;64.58
43701;BME280;58809;47.984;7.964;2023-02-10T13:07:58;99155.22;;;4.79;64.09
43701;BME280;58809;47.984;7.964;2023-02-10T13:14:34;99149.72;;;4.84;63.89
43701;BME280;58809;47.984;7.964;2023-02-10T13:17:42;99151.34;;;4.99;63.94
43701;BME280;58809;47.984;7.964;2023-02-10T13:21:00;99142.16;;;5.06;63.30
43701;BME280;58809;47.984;7.964;2023-02-10T13:31:08;99128.47;;;5.28;62.53
43701;BME280;58809;47.984;7.964;2023-02-10T13:34:21;99127.75;;;5.26;62.77
43701;BME280;58809;47.984;7.964;2023-02-10T13:37:35;99138.50;;;5.49;62.11
43701;BME280;58809;47.984;7.964;2023-02-10T13:43:55;99144.31;;;5.67;60.78
43701;BME280;58809;47.984;7.964;2023-02-10T13:50:46;99151.28;;;5.93;60.62
43701;BME280;58809;47.984;7.964;2023-02-10T13:53:49;99156.03;;;5.88;60.51
43701;BME280;58809;47.984;7.964;2023-02-10T13:56:56;99154.31;;;5.74;60.74
43701;BME280;58809;47.984;7.964;2023-02-10T14:00:20;99152.72;;;5.59;61.14
43701;BME280;58809;47.984;7.964;2023-02-10T14:03:31;99151.72;;;5.47;62.12
43701;BME280;58809;47.984;7.964;2023-02-10T14:06:39;99151.94;;;5.44;61.91
43701;BME280;58809;47.984;7.964;2023-02-10T14:09:41;99147.59;;;5.30;61.71
43701;BME280;58809;47.984;7.964;2023-02-10T14:13:18;99146.94;;;5.27;62.30
43701;BME280;58809;47.984;7.964;2023-02-10T14:19:29;99156.59;;;5.26;62.51
43701;BME280;58809;47.984;7.964;2023-02-10T14:22:36;99162.66;;;5.41;61.84
43701;BME280;58809;47.984;7.964;2023-02-10T14:25:40;99156.78;;;5.50;61.45
43701;BME280;58809;47.984;7.964;2023-02-10T14:28:48;99161.09;;;5.51;61.20
43701;BME280;58809;47.984;7.964;2023-02-10T14:31:58;99177.00;;;5.35;61.83
43701;BME280;58809;47.984;7.964;2023-02-10T14:35:03;99173.28;;;5.25;61.91
43701;BME280;58809;47.984;7.964;2023-02-10T14:38:20;99182.06;;;5.11;61.27
43701;BME280;58809;47.984;7.964;2023-02-10T14:41:23;99168.38;;;5.06;62.43
43701;BME280;58809;47.984;7.964;2023-02-10T14:44:44;99165.22;;;5.01;62.25
43701;BME280;58809;47.984;7.964;2023-02-10T14:47:49;99168.22;;;4.95;62.02
43701;BME280;58809;47.984;7.964;2023-02-10T14:51:07;99168.97;;;4.97;62.35
43701;BME280;58809;47.984;7.964;2023-02-10T14:54:18;99172.28;;;4.86;62.02
43701;BME280;58809;47.984;7.964;2023-02-10T14:57:22;99182.28;;;4.79;62.19
43701;BME280;58809;47.984;7.964;2023-02-10T15:00:26;99170.06;;;4.51;62.72
43701;BME280;58809;47.984;7.964;2023-02-10T15:03:28;99175.03;;;4.41;63.31
43701;BME280;58809;47.984;7.964;2023-02-10T15:06:31;99169.78;;;4.41;63.09
43701;BME280;58809;47.984;7.964;2023-02-10T15:09:34;99172.13;;;4.60;62.94
43701;BME280;58809;47.984;7.964;2023-02-10T15:12:37;99172.53;;;4.81;62.32
43701;BME280;58809;47.984;7.964;2023-02-10T15:15:51;99179.88;;;4.62;62.28
43701;BME280;58809;47.984;7.964;2023-02-10T15:18:53;99177.84;;;4.38;62.46
43701;BME280;58809;47.984;7.964;2023-02-10T15:21:55;99177.34;;;4.32;62.94
43701;BME280;58809;47.984;7.964;2023-02-10T15:24:56;99178.56;;;4.26;63.30
43701;BME280;58809;47.984;7.964;2023-02-10T15:31:27;99173.34;;;4.55;63.48
43701;BME280;58809;47.984;7.964;2023-02-10T15:34:31;99178.28;;;4.74;63.08
43701;BME280;58809;47.984;7.964;2023-02-10T15:37:33;99173.59;;;4.65;63.22
43701;BME280;58809;47.984;7.964;2023-02-10T15:40:38;99179.25;;;4.58;63.57
43701;BME280;58809;47.984;7.964;2023-02-10T15:43:46;99174.91;;;4.43;64.02
43701;BME280;58809;47.984;7.964;2023-02-10T15:46:54;99178.84;;;4.36;64.38
43701;BME280;58809;47.984;7.964;2023-02-10T15:49:57;99172.94;;;4.32;64.66
43701;BME280;58809;47.984;7.964;2023-02-10T15:53:00;99178.00;;;4.35;64.65
43701;BME280;58809;47.984;7.964;2023-02-10T15:56:01;99181.84;;;4.30;64.72
43701;BME280;58809;47.984;7.964;2023-02-10T15:59:11;99183.25;;;4.21;65.07
43701;BME280;58809;47.984;7.964;2023-02-10T16:02:15;99187.81;;;4.03;65.66
43701;BME280;58809;47.984;7.964;2023-02-10T16:05:16;99172.88;;;3.75;66.46
43701;BME280;58809;47.984;7.964;2023-02-10T16:08:21;99182.91;;;3.52;67.54
43701;BME280;58809;47.984;7.964;2023-02-10T16:11:23;99182.09;;;3.36;68.38
43701;BME280;58809;47.984;7.964;2023-02-10T16:14:25;99187.34;;;3.20;69.33
43701;BME280;58809;47.984;7.964;2023-02-10T16:17:29;99187.16;;;3.07;70.17
43701;BME280;58809;47.984;7.964;2023-02-10T16:20:34;99177.56;;;2.92;70.46
43701;BME280;58809;47.984;7.964;2023-02-10T16:23:35;99169.94;;;2.71;71.23
43701;BME280;58809;47.984;7.964;2023-02-10T16:26:37;99173.97;;;2.45;72.34
43701;BME280;58809;47.984;7.964;2023-02-10T16:29:40;99167.34;;;2.22;73.50
43701;BME280;58809;47.984;7.964;2023-02-10T16:32:42;99175.34;;;2.01;74.32
43701;BME280;58809;47.984;7.964;2023-02-10T16:35:43;99174.06;;;1.92;75.04
43701;BME280;58809;47.984;7.964;2023-02-10T16:38:45;99170.56;;;1.76;75.67
43701;BME280;58809;47.984;7.964;2023-02-10T16:41:52;99171.31;;;1.61;76.59
43701;BME280;58809;47.984;7.964;2023-02-10T16:44:54;99172.44;;;1.55;77.33
43701;BME280;58809;47.984;7.964;2023-02-10T16:47:56;99172.75;;;1.49;77.48
43701;BME280;58809;47.984;7.964;2023-02-10T16:50:58;99168.97;;;1.37;78.27
43701;BME280;58809;47.984;7.964;2023-02-10T16:53:59;99175.41;;;1.30;78.58
43701;BME280;58809;47.984;7.964;2023-02-10T16:57:01;99181.84;;;1.23;78.87
43701;BME280;58809;47.984;7.964;2023-02-10T17:00:03;99180.75;;;1.09;79.28
43701;BME280;58809;47.984;7.964;2023-02-10T17:03:05;99177.59;;;1.03;79.86
43701;BME280;58809;47.984;7.964;2023-02-10T17:06:07;99185.97;;;0.90;80.16
43701;BME280;58809;47.984;7.964;2023-02-10T17:09:15;99183.44;;;0.89;80.81
43701;BME280;58809;47.984;7.964;2023-02-10T17:12:17;99186.25;;;0.84;81.06
43701;BME280;58809;47.984;7.964;2023-02-10T17:15:19;99198.22;;;0.69;81.74
43701;BME280;58809;47.984;7.964;2023-02-10T17:18:20;99187.69;;;0.53;82.18
43701;BME280;58809;47.984;7.964;2023-02-10T17:21:21;99206.94;;;0.49;82.83
43701;BME280;58809;47.984;7.964;2023-02-10T17:24:23;99190.75;;;0.43;82.94
43701;BME280;58809;47.984;7.964;2023-02-10T17:27:25;99202.28;;;0.37;83.79
43701;BME280;58809;47.984;7.964;2023-02-10T17:30:27;99207.63;;;0.34;83.95
43701;BME280;58809;47.984;7.964;2023-02-10T17:33:28;99215.78;;;0.26;84.25
43701;BME280;58809;47.984;7.964;2023-02-10T17:36:32;99207.25;;;0.23;84.57
43701;BME280;58809;47.984;7.964;2023-02-10T17:39:36;99206.53;;;0.19;85.23
43701;BME280;58809;47.984;7.964;2023-02-10T17:42:37;99200.69;;;0.14;85.36
43701;BME280;58809;47.984;7.964;2023-02-10T17:45:39;99206.09;;;0.09;85.70
43701;BME280;58809;47.984;7.964;2023-02-10T17:48:40;99214.53;;;-0.06;85.73